Time;durP1;ratioP1;P1;durP2;ratioP2;P2;SDS_P1;SDS_P2;PMS_P1;PMS_P2;Temp;Humidity;BMP_temperature;BMP_pressure;BME280_temperature;BME280_humidity;BME280_pressure;Samples;Min_cycle;Max_cycle;Signal;HPM_P1;HPM_P2
2021/11/19 00:01:38;;;;;;;13.00;6.80;;;;;;;8.61;64.72;99566.53;213856;1325;138729;-60
2021/11/19 00:06:42;;;;;;;20.60;7.40;;;;;;;8.58;64.90;99555.67;212124;1331;140568;-59
2021/11/19 00:11:48;;;;;;;14.80;7.40;;;;;;;8.62;64.78;99563.83;212403;1324;139124;-57
2021/11/19 00:16:57;;;;;;;;;;;;;;;8.63;64.91;99572.27;212477;1322;138831;-61
2021/11/19 00:22:01;;;;;;;18.10;8.10;;;;;;;8.64;64.61;99550.29;212453;1322;126074;-62
2021/11/19 00:27:06;;;;;;;15.80;8.20;;;;;;;8.61;64.52;99553.63;213644;1325;139277;-62
2021/11/19 00:32:10;;;;;;;16.00;7.60;;;;;;;8.57;64.64;99561.55;212795;1322;138363;-58
2021/11/19 00:37:13;;;;;;;16.00;7.70;;;;;;;8.53;64.56;99552.36;213442;1321;138728;-58
2021/11/19 00:42:17;;;;;;;14.60;7.40;;;;;;;8.50;64.60;99555.36;214158;1324;139403;-61
2021/11/19 00:47:20;;;;;;;13.60;7.50;;;;;;;8.49;64.89;99553.43;213745;1324;139288;-61
2021/11/19 00:52:24;;;;;;;14.90;7.60;;;;;;;8.49;64.68;99539.66;212779;1326;138503;-60
2021/11/19 00:57:27;;;;;;;18.50;7.80;;;;;;;8.50;64.70;99534.30;212625;1325;139576;-60
2021/11/19 01:02:31;;;;;;;13.40;7.40;;;;;;;8.50;64.77;99536.06;213594;1322;139025;-59
2021/11/19 01:07:36;;;;;;;15.40;7.20;;;;;;;8.45;64.64;99531.54;212790;1322;139150;-61
2021/11/19 01:12:40;;;;;;;14.60;7.40;;;;;;;8.43;64.56;99538.33;212480;1325;139016;-59
2021/11/19 01:17:53;;;;;;;16.90;8.00;;;;;;;8.41;64.66;99537.18;213943;1322;140198;-57
2021/11/19 01:22:59;;;;;;;13.80;7.30;;;;;;;8.36;64.74;99533.85;213265;1324;139670;-59
2021/11/19 01:28:03;;;;;;;14.20;7.30;;;;;;;8.29;64.75;99520.90;213182;1324;139069;-59
2021/11/19 01:33:07;;;;;;;13.30;7.60;;;;;;;8.21;64.94;99513.11;213574;1324;151753;-58
2021/11/19 01:38:24;;;;;;;13.80;7.30;;;;;;;8.16;65.20;99510.52;212728;1324;139741;-58
2021/11/19 01:43:44;;;;;;;14.40;8.20;;;;;;;8.15;65.23;99523.31;213422;1324;140705;-59
2021/11/19 01:48:51;;;;;;;15.10;8.10;;;;;;;8.09;65.34;99515.59;213940;1324;139237;-60
2021/11/19 01:53:58;;;;;;;16.00;9.10;;;;;;;8.09;65.58;99517.94;213227;1325;138793;-60
2021/11/19 01:59:04;;;;;;;15.90;7.90;;;;;;;8.08;65.52;99515.11;213364;1325;139300;-58
2021/11/19 02:04:11;;;;;;;;;;;;;;;8.08;65.56;99510.20;213846;1324;139396;-59
2021/11/19 02:09:33;;;;;;;;;;;;;;;8.01;65.57;99496.15;213782;1324;125631;-60
2021/11/19 02:14:59;;;;;;;14.10;8.70;;;;;;;7.96;65.59;99479.23;213622;1322;125363;-60
2021/11/19 02:20:11;;;;;;;15.60;8.30;;;;;;;7.91;65.65;99471.55;213127;1324;139434;-61
2021/11/19 02:25:19;;;;;;;17.50;8.50;;;;;;;7.91;65.77;99468.70;213372;1324;139803;-60
2021/11/19 02:30:27;;;;;;;12.10;8.60;;;;;;;7.87;65.82;99468.55;213379;1324;140998;-60
2021/11/19 02:35:37;;;;;;;14.10;8.50;;;;;;;7.86;65.76;99467.02;213710;1321;138681;-59
2021/11/19 02:40:50;;;;;;;14.90;8.00;;;;;;;7.82;65.94;99456.38;213997;1322;138969;-59
2021/11/19 02:45:54;;;;;;;13.70;9.10;;;;;;;7.78;65.82;99468.71;213916;1324;139256;-58
2021/11/19 02:51:00;;;;;;;15.10;9.20;;;;;;;7.75;66.12;99465.15;212855;1324;138444;-59
2021/11/19 02:56:05;;;;;;;17.20;9.10;;;;;;;7.74;66.31;99457.41;213055;1315;138931;-58
2021/11/19 03:01:26;;;;;;;15.00;8.50;;;;;;;7.70;66.32;99464.65;213601;1322;138961;-59
2021/11/19 03:06:41;;;;;;;15.70;10.50;;;;;;;7.71;66.41;99459.70;212886;1324;140511;-58
2021/11/19 03:11:45;;;;;;;18.90;10.60;;;;;;;7.68;66.50;99466.54;212284;1327;174878;-59
2021/11/19 03:16:51;;;;;;;19.80;9.60;;;;;;;7.59;66.67;99447.16;212550;1322;138737;-60
2021/11/19 03:21:54;;;;;;;18.80;11.00;;;;;;;7.54;66.82;99437.64;213957;1324;140435;-59
2021/11/19 03:26:58;;;;;;;16.80;10.50;;;;;;;7.49;67.10;99425.32;213989;1324;140624;-61
2021/11/19 03:32:02;;;;;;;17.90;10.40;;;;;;;7.45;67.10;99438.19;212782;1324;139475;-59
2021/11/19 03:37:05;;;;;;;19.10;10.00;;;;;;;7.39;67.33;99420.11;213044;1324;139455;-58
2021/11/19 03:42:10;;;;;;;16.00;10.60;;;;;;;7.38;67.60;99431.80;213726;1324;139252;-59
2021/11/19 03:47:23;;;;;;;17.20;10.10;;;;;;;7.34;67.65;99432.33;213249;1327;138872;-58
2021/11/19 03:52:35;;;;;;;16.40;10.30;;;;;;;7.34;68.12;99438.48;213398;1324;140084;-57
2021/11/19 03:57:40;;;;;;;19.40;10.50;;;;;;;7.33;68.07;99446.29;214173;1322;139243;-57
2021/11/19 04:02:44;;;;;;;16.20;10.60;;;;;;;7.32;68.23;99444.94;213987;1322;141019;-57
2021/11/19 04:07:48;;;;;;;18.40;11.30;;;;;;;7.31;68.36;99435.45;212717;1325;139998;-60
2021/11/19 04:12:55;;;;;;;15.60;9.80;;;;;;;7.32;68.88;99433.81;213625;1324;139693;-59
2021/11/19 04:17:59;;;;;;;15.60;9.80;;;;;;;7.32;68.60;99443.17;212578;1325;138660;-59
2021/11/19 04:23:05;;;;;;;17.10;11.20;;;;;;;7.29;68.87;99456.02;213598;1322;139400;-60
2021/11/19 04:28:08;;;;;;;16.70;11.00;;;;;;;7.27;68.80;99440.59;211999;1324;139401;-57
2021/11/19 04:33:27;;;;;;;19.10;12.20;;;;;;;7.27;69.25;99434.21;213382;1324;139503;-60
2021/11/19 04:38:31;;;;;;;20.40;11.30;;;;;;;7.26;69.26;99420.14;213230;1322;139373;-57
2021/11/19 04:43:37;;;;;;;16.90;10.60;;;;;;;7.22;69.44;99410.77;213790;1321;139744;-58
2021/11/19 04:48:41;;;;;;;14.60;9.60;;;;;;;7.18;69.73;99415.56;212720;1325;138956;-59
2021/11/19 04:53:46;;;;;;;14.50;9.60;;;;;;;7.13;69.85;99410.08;213044;1328;140288;-59
2021/11/19 04:58:50;;;;;;;15.90;11.00;;;;;;;7.10;69.90;99401.74;213854;1321;140680;-59
2021/11/19 05:03:53;;;;;;;15.50;9.90;;;;;;;7.06;70.19;99402.96;214118;1322;139710;-60
2021/11/19 05:08:56;;;;;;;13.60;9.40;;;;;;;7.07;70.41;99402.95;213834;1324;139464;-61
2021/11/19 05:14:02;;;;;;;16.50;9.90;;;;;;;7.08;70.47;99398.13;212095;1327;139854;-58
2021/11/19 05:19:05;;;;;;;13.40;9.10;;;;;;;7.06;70.78;99398.02;213001;1322;139968;-59
2021/11/19 05:24:10;;;;;;;15.20;10.60;;;;;;;7.06;70.74;99406.69;213301;1324;139627;-60
2021/11/19 05:29:18;;;;;;;16.30;10.30;;;;;;;7.01;71.12;99401.09;213727;1324;139158;-59
2021/11/19 05:34:22;;;;;;;13.90;8.50;;;;;;;7.00;71.33;99399.18;212751;1324;139715;-61
2021/11/19 05:39:26;;;;;;;14.30;10.20;;;;;;;7.02;71.21;99398.23;213282;1325;142405;-60
2021/11/19 05:44:29;;;;;;;15.90;9.70;;;;;;;6.99;71.40;99399.21;214284;1321;139447;-61
2021/11/19 05:49:45;;;;;;;32.90;20.10;;;;;;;6.99;71.78;99405.55;212641;1328;140096;-59
2021/11/19 05:54:48;;;;;;;16.30;9.50;;;;;;;7.14;72.14;99396.61;213154;1324;139148;-60
2021/11/19 05:59:51;;;;;;;12.30;8.70;;;;;;;7.16;71.70;99406.95;213597;1325;138935;-58
2021/11/19 06:05:32;;;;;;;13.80;9.20;;;;;;;7.12;71.76;99414.02;212355;1333;139952;-57
2021/11/19 06:11:20;;;;;;;14.80;9.60;;;;;;;7.10;71.89;99417.79;212419;1324;142090;-57
2021/11/19 06:16:28;;;;;;;109.80;62.10;;;;;;;7.09;72.16;99414.13;213168;1324;140265;-60
2021/11/19 06:21:47;;;;;;;14.10;8.70;;;;;;;7.20;72.40;99428.86;213212;1324;139903;-60
2021/11/19 06:26:50;;;;;;;10.90;7.50;;;;;;;7.22;72.02;99435.66;213656;1321;138339;-60
2021/11/19 06:31:57;;;;;;;13.00;8.30;;;;;;;7.19;72.28;99438.97;213332;1324;139354;-56
2021/11/19 06:37:01;;;;;;;12.30;8.70;;;;;;;7.19;72.43;99450.80;213063;1322;139456;-59
2021/11/19 06:42:21;;;;;;;11.40;7.90;;;;;;;7.15;72.44;99447.23;213581;1325;139311;-60
2021/11/19 06:47:43;;;;;;;12.20;7.60;;;;;;;7.14;72.64;99446.44;213230;1324;142375;-60
2021/11/19 06:53:26;;;;;;;33.00;17.90;;;;;;;7.13;72.76;99447.50;213174;1321;140578;-60
2021/11/19 06:58:55;;;;;;;18.70;10.90;;;;;;;7.19;72.96;99446.19;212466;1328;139220;-59
2021/11/19 07:03:58;;;;;;;13.90;8.50;;;;;;;7.19;72.83;99449.71;213770;1324;140275;-60
2021/11/19 07:09:04;;;;;;;10.30;7.80;;;;;;;7.21;73.06;99458.45;213533;1328;140190;-60
2021/11/19 07:14:09;;;;;;;10.50;6.90;;;;;;;7.26;73.23;99448.90;213440;1324;140345;-58
2021/11/19 07:19:12;;;;;;;10.90;7.80;;;;;;;7.31;72.99;99442.52;213552;1322;140525;-58
2021/11/19 07:24:16;;;;;;;10.60;8.00;;;;;;;7.32;73.11;99456.21;212553;1324;140685;-57
2021/11/19 07:29:19;;;;;;;8.60;5.90;;;;;;;7.36;73.16;99460.30;213267;1324;139029;-62
2021/11/19 07:34:44;;;;;;;9.50;6.70;;;;;;;7.35;73.22;99461.02;213231;1324;139314;-61
2021/11/19 07:40:15;;;;;;;14.30;7.80;;;;;;;7.38;73.29;99453.71;212404;1324;139405;-58
2021/11/19 07:45:36;;;;;;;11.10;7.30;;;;;;;7.43;73.43;99454.52;212810;1324;139738;-59
2021/11/19 07:51:10;;;;;;;9.20;6.30;;;;;;;7.46;73.63;99457.03;212328;1328;139929;-58
2021/11/19 07:56:15;;;;;;;9.60;6.60;;;;;;;7.46;73.46;99452.46;213349;1325;139435;-58
2021/11/19 08:01:22;;;;;;;8.10;6.50;;;;;;;7.47;73.53;99448.91;213200;1324;139950;-58
2021/11/19 08:06:28;;;;;;;12.60;8.00;;;;;;;7.48;73.49;99439.86;213788;1325;139325;-57
2021/11/19 08:11:57;;;;;;;9.20;5.60;;;;;;;7.52;73.74;99451.16;211817;1327;138932;-58
2021/11/19 08:17:13;;;;;;;8.30;5.50;;;;;;;7.60;73.83;99458.91;214259;1325;138989;-59
2021/11/19 08:22:21;;;;;;;13.90;6.80;;;;;;;7.69;73.84;99470.20;212513;1327;140156;-57
2021/11/19 08:27:31;;;;;;;9.30;5.60;;;;;;;7.75;73.81;99463.60;213470;1326;235037;-57
2021/11/19 08:32:34;;;;;;;7.90;5.70;;;;;;;7.77;73.54;99462.42;213046;1324;139833;-58
2021/11/19 08:37:38;;;;;;;7.00;5.20;;;;;;;7.79;73.98;99472.19;213939;1323;138691;-59
2021/11/19 08:42:43;;;;;;;11.40;5.50;;;;;;;7.85;73.90;99472.30;212531;1327;139310;-60
2021/11/19 08:47:49;;;;;;;8.40;6.10;;;;;;;7.95;74.11;99470.29;213318;1325;140421;-59
2021/11/19 08:52:52;;;;;;;7.70;5.00;;;;;;;8.05;73.94;99473.38;213015;1324;138625;-60
2021/11/19 08:57:57;;;;;;;7.10;5.30;;;;;;;8.06;73.81;99484.11;213407;1324;139029;-58
2021/11/19 09:03:00;;;;;;;6.80;4.70;;;;;;;8.07;73.97;99474.19;213187;1322;141589;-59
2021/11/19 09:08:06;;;;;;;6.50;4.60;;;;;;;8.10;74.03;99470.69;213709;1322;141619;-60
2021/11/19 09:13:10;;;;;;;71.90;47.20;;;;;;;8.14;74.08;99477.94;213995;1324;139660;-60
2021/11/19 09:18:25;;;;;;;9.40;6.70;;;;;;;8.27;74.23;99472.22;213543;1323;140766;-60
2021/11/19 09:23:33;;;;;;;8.20;5.40;;;;;;;8.33;74.05;99469.46;212975;1322;138618;-58
2021/11/19 09:28:39;;;;;;;7.60;4.80;;;;;;;8.33;74.17;99454.98;211928;1324;139448;-61
2021/11/19 09:33:42;;;;;;;;;;;;;;;8.33;74.03;99462.55;211834;1328;139150;-61
2021/11/19 09:38:47;;;;;;;8.40;5.80;;;;;;;8.37;74.08;99478.14;212012;1325;125706;-60
2021/11/19 09:43:59;;;;;;;86.40;48.50;;;;;;;8.45;74.47;99486.77;211822;1330;139368;-61
2021/11/19 09:49:30;;;;;;;7.80;5.60;;;;;;;8.61;74.19;99483.92;212383;1324;139980;-60
2021/11/19 09:54:42;;;;;;;7.50;5.30;;;;;;;8.61;73.98;99486.74;212531;1324;139270;-60
2021/11/19 10:00:23;;;;;;;5.60;4.20;;;;;;;8.63;73.99;99488.45;212007;1325;138969;-58
2021/11/19 10:05:40;;;;;;;6.40;4.70;;;;;;;8.66;74.08;99479.64;211799;1331;139219;-59
2021/11/19 10:10:59;;;;;;;6.40;5.30;;;;;;;8.70;73.98;99468.81;211762;1330;139627;-57
2021/11/19 10:16:02;;;;;;;8.20;5.30;;;;;;;8.75;74.23;99461.67;211859;1330;139020;-59
2021/11/19 10:21:16;;;;;;;7.90;4.40;;;;;;;8.78;73.83;99445.98;211937;1331;139496;-57
2021/11/19 10:26:37;;;;;;;9.30;5.50;;;;;;;8.83;73.90;99434.44;211954;1325;139353;-59
2021/11/19 10:31:40;;;;;;;7.80;4.60;;;;;;;8.85;74.10;99422.66;211933;1325;139544;-59
2021/11/19 10:36:48;;;;;;;7.10;4.60;;;;;;;8.88;73.87;99431.33;211968;1328;138971;-60
2021/11/19 10:41:54;;;;;;;5.50;4.30;;;;;;;8.91;74.05;99424.99;212246;1327;139397;-60
2021/11/19 10:47:22;;;;;;;6.10;4.40;;;;;;;8.97;73.93;99418.85;211522;1331;139792;-59
2021/11/19 10:52:44;;;;;;;7.60;4.70;;;;;;;9.02;74.08;99411.17;212471;1325;139423;-58
2021/11/19 10:58:01;;;;;;;6.80;4.60;;;;;;;9.08;74.04;99411.58;212347;1322;139339;-58
2021/11/19 11:03:16;;;;;;;6.40;4.10;;;;;;;9.16;73.94;99410.31;212195;1325;141065;-60
2021/11/19 11:08:21;;;;;;;5.70;4.30;;;;;;;9.22;73.97;99402.02;212023;1325;139159;-58
2021/11/19 11:13:30;;;;;;;4.30;3.70;;;;;;;9.29;74.05;99397.09;212062;1327;184608;-57
2021/11/19 11:18:45;;;;;;;4.90;2.80;;;;;;;9.32;73.71;99393.54;211988;1322;139086;-59
2021/11/19 11:23:57;;;;;;;5.70;3.60;;;;;;;9.36;73.84;99394.42;212108;1325;140045;-60
2021/11/19 11:29:29;;;;;;;5.20;3.50;;;;;;;9.41;73.78;99391.18;211532;1336;138883;-61
2021/11/19 11:34:42;;;;;;;4.40;3.10;;;;;;;9.45;73.58;99385.65;212019;1327;139120;-59
2021/11/19 11:40:28;;;;;;;3.90;2.90;;;;;;;9.47;74.04;99387.98;212472;1325;139446;-59
2021/11/19 11:45:42;;;;;;;4.80;3.30;;;;;;;9.55;73.85;99388.31;212130;1330;139132;-58
2021/11/19 11:50:58;;;;;;;106.40;57.80;;;;;;;9.60;73.95;99394.39;211590;1332;140065;-59
2021/11/19 11:56:23;;;;;;;10.20;6.20;;;;;;;9.73;73.90;99394.83;212044;1325;139924;-59
2021/11/19 12:01:44;;;;;;;6.20;4.10;;;;;;;9.81;73.66;99388.02;212200;1325;139420;-58
2021/11/19 12:06:56;;;;;;;6.60;3.80;;;;;;;9.82;73.66;99392.03;211882;1329;139920;-59
2021/11/19 12:12:04;;;;;;;5.50;3.50;;;;;;;9.81;73.54;99390.30;211807;1328;139931;-60
2021/11/19 12:17:48;;;;;;;5.80;4.50;;;;;;;9.80;73.57;99391.93;211831;1331;139009;-59
2021/11/19 12:23:03;;;;;;;6.60;4.10;;;;;;;9.80;73.54;99397.24;211688;1331;139308;-60
2021/11/19 12:28:10;;;;;;;7.70;4.70;;;;;;;9.79;73.41;99401.56;212209;1328;139174;-60
2021/11/19 12:33:28;;;;;;;8.10;4.90;;;;;;;9.79;73.72;99391.09;211921;1329;139053;-60
2021/11/19 12:38:36;;;;;;;185.10;108.10;;;;;;;9.81;73.70;99391.56;211910;1328;140470;-59
2021/11/19 12:44:03;;;;;;;11.30;5.40;;;;;;;9.90;73.75;99385.77;212030;1328;140165;-60
2021/11/19 12:49:24;;;;;;;7.60;5.50;;;;;;;9.94;73.58;99379.30;211845;1331;139628;-60
2021/11/19 12:54:44;;;;;;;7.00;4.80;;;;;;;9.97;73.82;99377.73;212033;1328;138629;-59
2021/11/19 12:59:52;;;;;;;9.20;4.40;;;;;;;9.99;73.68;99359.71;211748;1330;139467;-58
2021/11/19 13:05:07;;;;;;;7.70;5.30;;;;;;;10.03;73.68;99360.60;211907;1326;138851;-58
2021/11/19 13:10:36;;;;;;;11.50;6.10;;;;;;;10.03;73.68;99367.65;212469;1328;139648;-60
2021/11/19 13:15:48;;;;;;;9.40;5.80;;;;;;;10.00;73.55;99365.15;212001;1324;139183;-58
2021/11/19 13:20:52;;;;;;;9.40;6.50;;;;;;;10.00;73.78;99369.26;212041;1325;139845;-57
2021/11/19 13:25:59;;;;;;;10.90;7.50;;;;;;;9.96;73.57;99379.53;211564;1333;140743;-59
2021/11/19 13:31:20;;;;;;;13.50;9.00;;;;;;;9.93;73.62;99376.69;212450;1318;140046;-56
2021/11/19 13:36:44;;;;;;;12.00;8.90;;;;;;;9.90;73.66;99374.02;212279;1329;139619;-59
2021/11/19 13:42:07;;;;;;;13.70;10.30;;;;;;;9.84;73.85;99377.57;212061;1326;139008;-59
2021/11/19 13:47:35;;;;;;;15.60;11.30;;;;;;;9.83;73.55;99388.45;211843;1328;140063;-59
2021/11/19 13:52:53;;;;;;;17.20;12.20;;;;;;;9.80;73.86;99378.29;211936;1328;139582;-58
2021/11/19 13:58:10;;;;;;;17.00;12.30;;;;;;;9.77;74.07;99399.20;211876;1331;139850;-58
2021/11/19 14:03:21;;;;;;;19.70;11.90;;;;;;;9.77;74.00;99400.63;212293;1325;140493;-59
2021/11/19 14:08:30;;;;;;;20.80;13.80;;;;;;;9.76;74.37;99393.36;211837;1331;139468;-58
2021/11/19 14:13:43;;;;;;;15.70;12.30;;;;;;;9.74;74.16;99389.77;211952;1327;140145;-59
2021/11/19 14:19:07;;;;;;;14.40;11.20;;;;;;;9.73;74.18;99391.46;211753;1333;139895;-59
2021/11/19 14:24:10;;;;;;;15.40;12.40;;;;;;;9.76;74.32;99394.45;212671;1328;139939;-58
2021/11/19 14:29:23;;;;;;;17.60;13.20;;;;;;;9.75;74.31;99396.81;212871;1328;139645;-59
2021/11/19 14:34:38;;;;;;;16.90;11.20;;;;;;;9.76;74.05;99405.27;211709;1335;140291;-59
2021/11/19 14:39:42;;;;;;;18.50;11.90;;;;;;;9.74;74.25;99399.71;211642;1333;140471;-59
2021/11/19 14:45:00;;;;;;;16.40;10.90;;;;;;;9.74;74.22;99405.55;212270;1325;140038;-58
2021/11/19 14:55:50;;;;;;;20.10;12.80;;;;;;;9.73;74.53;99390.73;211794;1331;140063;-58
2021/11/19 15:01:04;;;;;;;18.60;12.70;;;;;;;9.65;74.36;99394.14;211980;1324;139635;-59
2021/11/19 15:06:39;;;;;;;17.00;13.10;;;;;;;9.60;74.70;99394.25;211886;1328;139516;-57
2021/11/19 15:11:44;;;;;;;16.80;12.10;;;;;;;9.56;74.57;99390.38;211726;1325;140173;-59
2021/11/19 15:16:59;;;;;;;17.00;12.90;;;;;;;9.51;74.61;99404.98;212045;1331;139569;-59
2021/11/19 15:22:10;;;;;;;18.70;12.00;;;;;;;9.46;74.66;99406.13;211969;1323;140917;-58
2021/11/19 15:27:28;;;;;;;15.10;11.10;;;;;;;9.41;74.86;99398.23;211756;1324;139804;-59
2021/11/19 15:32:46;;;;;;;16.30;12.10;;;;;;;9.34;74.77;99398.23;212478;1331;141507;-59
2021/11/19 15:37:55;;;;;;;17.60;12.20;;;;;;;9.33;74.99;99408.20;211983;1325;139794;-59
2021/11/19 15:43:02;;;;;;;17.20;12.90;;;;;;;9.33;75.04;99401.64;211573;1332;139211;-60
2021/11/19 15:48:05;;;;;;;17.00;12.10;;;;;;;9.32;75.17;99407.39;212297;1326;139961;-57
2021/11/19 15:53:40;;;;;;;15.50;12.70;;;;;;;9.35;75.13;99400.30;211956;1324;139814;-59
2021/11/19 15:59:13;;;;;;;17.40;12.80;;;;;;;9.36;75.14;99403.05;211789;1337;140014;-58
2021/11/19 16:04:36;;;;;;;16.10;13.50;;;;;;;9.37;75.11;99400.04;211831;1325;140137;-57
2021/11/19 16:09:46;;;;;;;23.10;14.30;;;;;;;9.39;75.20;99394.45;211847;1329;139268;-58
2021/11/19 16:14:49;;;;;;;14.60;11.40;;;;;;;9.41;75.43;99398.95;211942;1325;140159;-57
2021/11/19 16:19:52;;;;;;;19.90;14.20;;;;;;;9.42;75.21;99399.77;211765;1332;139906;-57
2021/11/19 16:24:55;;;;;;;16.90;12.80;;;;;;;9.39;75.40;99392.30;211544;1325;139194;-56
2021/11/19 16:30:02;;;;;;;16.30;12.30;;;;;;;9.41;75.34;99391.14;211759;1331;139427;-58
2021/11/19 16:35:08;;;;;;;22.20;15.40;;;;;;;9.50;75.80;99385.20;212778;1325;139510;-60
2021/11/19 16:40:13;;;;;;;18.30;12.70;;;;;;;9.56;75.48;99380.65;212183;1327;139834;-55
2021/11/19 16:45:19;;;;;;;18.90;13.50;;;;;;;9.48;75.40;99363.34;212044;1324;139212;-57
2021/11/19 16:50:30;;;;;;;19.60;14.50;;;;;;;9.41;75.44;99381.58;212184;1329;141787;-57
2021/11/19 16:55:33;;;;;;;18.20;13.20;;;;;;;9.37;75.46;99398.10;212241;1325;140210;-56
2021/11/19 17:00:41;;;;;;;23.50;14.40;;;;;;;9.36;75.73;99399.54;212585;1324;139828;-56
2021/11/19 17:05:45;;;;;;;18.80;14.10;;;;;;;9.37;75.65;99404.29;211915;1329;139252;-58
2021/11/19 17:10:48;;;;;;;19.10;13.90;;;;;;;9.38;75.95;99402.98;211912;1329;139974;-59
2021/11/19 17:15:52;;;;;;;19.40;15.20;;;;;;;9.41;75.93;99412.95;211656;1331;140115;-59
2021/11/19 17:20:56;;;;;;;25.20;16.30;;;;;;;9.44;75.85;99405.51;211734;1325;140354;-58
2021/11/19 17:25:59;;;;;;;20.80;14.90;;;;;;;9.46;75.92;99412.86;211405;1326;139474;-58
2021/11/19 17:31:03;;;;;;;17.80;13.80;;;;;;;9.50;75.86;99408.43;212115;1327;139908;-56
2021/11/19 17:36:06;;;;;;;255.30;148.90;;;;;;;9.51;75.88;99416.66;213102;1322;139090;-60
2021/11/19 17:41:09;;;;;;;19.00;14.10;;;;;;;9.56;76.03;99411.08;213558;1321;139378;-60
2021/11/19 17:46:18;;;;;;;18.20;13.80;;;;;;;9.57;75.87;99401.30;213698;1324;233782;-59
2021/11/19 17:51:24;;;;;;;18.60;12.70;;;;;;;9.53;75.90;99395.66;213690;1325;139120;-60
2021/11/19 17:56:35;;;;;;;17.30;12.60;;;;;;;9.49;75.99;99400.67;213318;1321;139693;-59
2021/11/19 18:01:38;;;;;;;17.50;14.30;;;;;;;9.46;75.90;99399.59;213368;1322;139632;-58
2021/11/19 18:06:42;;;;;;;17.20;13.40;;;;;;;9.44;76.10;99407.25;213390;1324;139621;-57
2021/11/19 18:11:49;;;;;;;18.10;13.20;;;;;;;9.46;76.11;99420.08;212091;1328;139734;-58
2021/11/19 18:16:59;;;;;;;21.30;15.20;;;;;;;9.50;76.13;99423.63;211859;1331;139692;-60
2021/11/19 18:22:07;;;;;;;15.50;11.90;;;;;;;9.49;76.29;99428.84;211968;1324;139442;-61
2021/11/19 18:27:12;;;;;;;17.10;12.80;;;;;;;9.47;76.15;99429.27;212203;1324;140330;-59
2021/11/19 18:32:21;;;;;;;18.20;12.30;;;;;;;9.48;76.27;99429.55;212178;1325;139969;-59
2021/11/19 18:37:32;;;;;;;14.20;11.10;;;;;;;9.46;76.12;99429.49;211769;1325;139485;-59
2021/11/19 18:42:35;;;;;;;13.90;9.80;;;;;;;9.45;76.28;99421.75;212260;1325;139934;-58
2021/11/19 18:47:39;;;;;;;13.30;10.40;;;;;;;9.45;76.16;99424.57;211940;1328;139999;-58
2021/11/19 18:52:44;;;;;;;14.20;9.90;;;;;;;9.41;76.22;99418.05;211929;1325;140139;-57
2021/11/19 18:57:48;;;;;;;13.50;9.50;;;;;;;9.39;76.45;99422.45;211944;1329;140255;-59
2021/11/19 19:02:52;;;;;;;13.30;10.70;;;;;;;9.37;76.40;99432.07;211775;1330;139224;-59
2021/11/19 19:08:00;;;;;;;11.20;9.70;;;;;;;9.38;76.45;99438.79;211545;1331;139264;-55
2021/11/19 19:13:05;;;;;;;10.30;8.70;;;;;;;9.39;76.41;99442.98;212450;1325;185054;-61
2021/11/19 19:18:10;;;;;;;13.10;9.80;;;;;;;9.41;76.52;99435.24;212222;1325;140092;-58
2021/11/19 19:23:16;;;;;;;12.00;9.00;;;;;;;9.41;76.63;99433.30;212144;1325;139642;-58
2021/11/19 19:28:21;;;;;;;12.30;9.50;;;;;;;9.42;76.60;99431.48;212154;1325;139403;-59
2021/11/19 19:33:26;;;;;;;12.00;8.80;;;;;;;9.43;76.81;99432.64;212319;1324;142656;-58
2021/11/19 19:38:33;;;;;;;26.30;21.50;;;;;;;9.42;76.58;99427.04;212107;1325;139460;-59
2021/11/19 19:43:41;;;;;;;13.70;9.60;;;;;;;9.51;77.05;99420.17;211863;1325;139395;-59
2021/11/19 19:48:45;;;;;;;12.70;9.70;;;;;;;9.58;76.91;99431.54;211739;1325;139480;-59
2021/11/19 19:53:52;;;;;;;11.30;8.70;;;;;;;9.56;76.81;99438.17;211893;1325;138987;-57
2021/11/19 19:58:55;;;;;;;11.80;9.10;;;;;;;9.54;76.84;99436.33;212185;1324;138815;-56
2021/11/19 20:04:01;;;;;;;17.80;10.70;;;;;;;9.53;76.83;99439.58;213360;1324;139659;-60
2021/11/19 20:09:05;;;;;;;13.80;9.90;;;;;;;9.55;76.96;99442.87;212510;1324;139207;-58
2021/11/19 20:14:09;;;;;;;14.20;9.90;;;;;;;9.56;77.15;99438.17;212412;1324;139526;-60
2021/11/19 20:19:13;;;;;;;13.90;10.10;;;;;;;9.59;76.95;99426.33;212415;1325;139786;-58
2021/11/19 20:24:20;;;;;;;133.10;72.80;;;;;;;9.58;76.91;99419.13;211925;1326;138965;-58
2021/11/19 20:29:24;;;;;;;14.10;10.30;;;;;;;9.75;77.47;99415.95;212004;1325;141968;-58
2021/11/19 20:34:31;;;;;;;14.90;10.30;;;;;;;9.82;77.07;99409.55;211910;1325;139157;-59
2021/11/19 20:39:35;;;;;;;11.80;9.70;;;;;;;9.78;76.85;99409.39;212008;1324;139081;-59
2021/11/19 20:44:43;;;;;;;13.10;9.60;;;;;;;9.76;76.86;99408.48;211849;1325;140592;-58
2021/11/19 20:49:48;;;;;;;13.60;9.70;;;;;;;9.76;76.87;99404.55;212337;1325;139794;-60
2021/11/19 20:54:52;;;;;;;13.40;9.50;;;;;;;9.77;77.05;99404.30;211844;1325;139825;-59
2021/11/19 20:59:56;;;;;;;116.90;78.20;;;;;;;9.79;77.16;99401.92;211787;1332;139519;-59
2021/11/19 21:05:01;;;;;;;13.80;10.30;;;;;;;9.85;77.22;99396.79;211560;1325;139846;-59
2021/11/19 21:10:07;;;;;;;13.70;9.20;;;;;;;9.87;77.15;99400.25;212014;1328;141247;-58
2021/11/19 21:15:16;;;;;;;12.40;8.60;;;;;;;9.89;77.24;99403.52;212117;1325;139865;-58
2021/11/19 21:20:23;;;;;;;12.40;8.90;;;;;;;9.92;77.19;99402.98;211815;1327;139386;-62
2021/11/19 21:25:37;;;;;;;12.50;8.40;;;;;;;9.96;77.12;99406.16;211917;1325;139436;-61
2021/11/19 21:30:44;;;;;;;12.00;8.50;;;;;;;9.95;77.06;99415.39;211528;1328;139746;-60
2021/11/19 21:35:51;;;;;;;14.50;10.20;;;;;;;9.97;77.04;99415.86;211567;1329;140236;-60
2021/11/19 21:40:59;;;;;;;13.70;11.20;;;;;;;9.90;76.99;99410.57;212133;1329;139554;-59
2021/11/19 21:46:03;;;;;;;13.70;10.60;;;;;;;9.85;76.89;99414.01;212545;1325;140123;-60
2021/11/19 21:51:43;;;;;;;13.90;11.50;;;;;;;9.84;77.31;99409.45;211832;1327;140180;-57
2021/11/19 21:56:50;;;;;;;13.10;10.50;;;;;;;9.83;77.15;99415.90;211492;1325;140932;-60
2021/11/19 22:01:58;;;;;;;15.80;11.80;;;;;;;9.86;77.29;99421.56;211610;1334;140265;-60
2021/11/19 22:07:05;;;;;;;15.00;11.70;;;;;;;9.87;77.29;99423.81;211827;1327;139781;-61
2021/11/19 22:12:10;;;;;;;10.10;8.90;;;;;;;9.90;77.24;99420.98;211916;1327;139848;-59
2021/11/19 22:17:16;;;;;;;;;;;;;;;9.95;77.08;99427.84;211937;1324;140296;-59
2021/11/19 22:22:21;;;;;;;12.90;9.00;;;;;;;9.99;77.41;99422.48;212029;1329;125723;-61
2021/11/19 22:27:27;;;;;;;11.90;8.70;;;;;;;10.01;77.43;99427.32;211768;1331;139530;-57
2021/11/19 22:32:30;;;;;;;8.90;8.00;;;;;;;10.04;77.17;99434.45;211975;1325;139397;-57
2021/11/19 22:37:33;;;;;;;14.10;10.60;;;;;;;10.05;76.91;99433.85;212070;1328;141489;-60
2021/11/19 22:42:36;;;;;;;10.80;9.20;;;;;;;10.08;77.07;99439.56;211522;1326;139663;-59
2021/11/19 22:47:45;;;;;;;12.20;9.30;;;;;;;10.13;77.18;99431.27;211842;1326;139169;-58
2021/11/19 22:52:48;;;;;;;14.40;11.70;;;;;;;10.21;77.33;99431.02;212634;1324;140065;-57
2021/11/19 22:57:51;;;;;;;18.40;10.90;;;;;;;10.34;76.94;99430.52;212052;1331;139278;-60
2021/11/19 23:02:54;;;;;;;15.70;10.60;;;;;;;10.36;76.66;99430.41;211846;1328;139668;-59
2021/11/19 23:07:58;;;;;;;19.90;13.60;;;;;;;10.36;76.32;99433.80;211607;1334;141925;-62
2021/11/19 23:13:02;;;;;;;21.60;15.40;;;;;;;10.31;76.41;99429.84;211951;1325;143120;-60
2021/11/19 23:18:10;;;;;;;21.40;14.70;;;;;;;10.21;75.99;99429.98;212373;1324;139723;-62
2021/11/19 23:23:15;;;;;;;25.40;16.50;;;;;;;10.16;76.01;99433.41;211866;1328;139974;-58
2021/11/19 23:28:24;;;;;;;21.80;16.50;;;;;;;10.14;75.99;99433.37;212379;1325;139083;-57
2021/11/19 23:33:31;;;;;;;24.60;16.80;;;;;;;10.11;76.10;99424.66;212068;1325;139898;-60
2021/11/19 23:38:34;;;;;;;21.90;15.80;;;;;;;10.09;75.87;99416.77;211724;1330;140062;-58
2021/11/19 23:43:39;;;;;;;25.10;16.50;;;;;;;10.09;76.27;99413.62;211980;1324;139528;-55
2021/11/19 23:48:43;;;;;;;20.90;14.40;;;;;;;10.11;76.15;99402.36;211780;1329;140018;-56